sensor_id;sensor_type;location;lat;lon;timestamp;P1;durP1;ratioP1;P2;durP2;ratioP2
40939;SDS011;26666;50.156;7.700;2022-12-18T00:02:35;16.52;;;5.10;;
40939;SDS011;26666;50.156;7.700;2022-12-18T00:07:37;8.93;;;3.08;;
40939;SDS011;26666;50.156;7.700;2022-12-18T00:12:38;9.75;;;3.45;;
40939;SDS011;26666;50.156;7.700;2022-12-18T00:17:40;11.35;;;4.00;;
40939;SDS011;26666;50.156;7.700;2022-12-18T00:22:41;11.45;;;3.95;;
40939;SDS011;26666;50.156;7.700;2022-12-18T00:27:43;14.38;;;4.25;;
40939;SDS011;26666;50.156;7.700;2022-12-18T00:32:44;17.58;;;4.38;;
40939;SDS011;26666;50.156;7.700;2022-12-18T00:37:46;12.30;;;4.97;;
40939;SDS011;26666;50.156;7.700;2022-12-18T00:42:47;13.77;;;3.80;;
40939;SDS011;26666;50.156;7.700;2022-12-18T00:47:49;12.93;;;4.00;;
40939;SDS011;26666;50.156;7.700;2022-12-18T00:52:50;14.73;;;5.38;;
40939;SDS011;26666;50.156;7.700;2022-12-18T00:57:52;15.20;;;4.97;;
40939;SDS011;26666;50.156;7.700;2022-12-18T01:02:54;13.73;;;4.90;;
40939;SDS011;26666;50.156;7.700;2022-12-18T01:07:56;15.38;;;4.85;;
40939;SDS011;26666;50.156;7.700;2022-12-18T01:12:58;17.70;;;5.68;;
40939;SDS011;26666;50.156;7.700;2022-12-18T01:18:00;16.35;;;4.72;;
40939;SDS011;26666;50.156;7.700;2022-12-18T01:23:01;13.05;;;4.05;;
40939;SDS011;26666;50.156;7.700;2022-12-18T01:28:03;21.90;;;5.10;;
40939;SDS011;26666;50.156;7.700;2022-12-18T01:33:04;18.23;;;6.50;;
40939;SDS011;26666;50.156;7.700;2022-12-18T01:38:06;24.80;;;6.07;;
40939;SDS011;26666;50.156;7.700;2022-12-18T01:43:08;23.50;;;5.85;;
40939;SDS011;26666;50.156;7.700;2022-12-18T01:48:10;25.63;;;6.85;;
40939;SDS011;26666;50.156;7.700;2022-12-18T01:53:16;18.58;;;5.90;;
40939;SDS011;26666;50.156;7.700;2022-12-18T01:58:27;21.55;;;6.47;;
40939;SDS011;26666;50.156;7.700;2022-12-18T02:03:49;19.13;;;4.82;;
40939;SDS011;26666;50.156;7.700;2022-12-18T02:08:55;17.08;;;5.35;;
40939;SDS011;26666;50.156;7.700;2022-12-18T02:19:22;17.45;;;5.20;;
40939;SDS011;26666;50.156;7.700;2022-12-18T02:24:44;19.27;;;4.88;;
40939;SDS011;26666;50.156;7.700;2022-12-18T02:29:53;14.20;;;4.50;;
40939;SDS011;26666;50.156;7.700;2022-12-18T02:34:59;21.65;;;5.85;;
40939;SDS011;26666;50.156;7.700;2022-12-18T02:40:03;22.80;;;7.18;;
40939;SDS011;26666;50.156;7.700;2022-12-18T02:45:06;15.80;;;5.57;;
40939;SDS011;26666;50.156;7.700;2022-12-18T03:00:42;20.10;;;5.82;;
40939;SDS011;26666;50.156;7.700;2022-12-18T03:06:06;38.00;;;6.93;;
40939;SDS011;26666;50.156;7.700;2022-12-18T03:11:12;28.27;;;6.25;;
40939;SDS011;26666;50.156;7.700;2022-12-18T03:16:16;24.50;;;7.00;;
40939;SDS011;26666;50.156;7.700;2022-12-18T03:21:26;25.30;;;6.13;;
40939;SDS011;26666;50.156;7.700;2022-12-18T03:26:33;23.55;;;6.60;;
40939;SDS011;26666;50.156;7.700;2022-12-18T03:31:39;20.05;;;5.78;;
40939;SDS011;26666;50.156;7.700;2022-12-18T03:36:43;24.60;;;6.10;;
40939;SDS011;26666;50.156;7.700;2022-12-18T03:41:47;28.35;;;7.45;;
40939;SDS011;26666;50.156;7.700;2022-12-18T03:47:24;27.77;;;5.18;;
40939;SDS011;26666;50.156;7.700;2022-12-18T03:52:40;18.40;;;5.60;;
40939;SDS011;26666;50.156;7.700;2022-12-18T03:57:50;26.60;;;5.53;;
40939;SDS011;26666;50.156;7.700;2022-12-18T04:02:54;19.27;;;5.00;;
40939;SDS011;26666;50.156;7.700;2022-12-18T04:07:57;22.05;;;6.28;;
40939;SDS011;26666;50.156;7.700;2022-12-18T04:12:59;20.40;;;5.07;;
40939;SDS011;26666;50.156;7.700;2022-12-18T04:18:01;17.08;;;5.22;;
40939;SDS011;26666;50.156;7.700;2022-12-18T04:23:03;17.33;;;5.13;;
40939;SDS011;26666;50.156;7.700;2022-12-18T04:28:04;13.90;;;4.90;;
40939;SDS011;26666;50.156;7.700;2022-12-18T04:33:10;22.27;;;5.25;;
40939;SDS011;26666;50.156;7.700;2022-12-18T04:38:12;21.25;;;5.75;;
40939;SDS011;26666;50.156;7.700;2022-12-18T04:43:14;20.05;;;4.90;;
40939;SDS011;26666;50.156;7.700;2022-12-18T04:48:15;17.95;;;4.70;;
40939;SDS011;26666;50.156;7.700;2022-12-18T04:53:17;19.90;;;5.82;;
40939;SDS011;26666;50.156;7.700;2022-12-18T04:58:18;23.48;;;6.68;;
40939;SDS011;26666;50.156;7.700;2022-12-18T05:03:20;24.83;;;6.60;;
40939;SDS011;26666;50.156;7.700;2022-12-18T05:08:22;24.80;;;5.82;;
40939;SDS011;26666;50.156;7.700;2022-12-18T05:13:24;23.05;;;6.20;;
40939;SDS011;26666;50.156;7.700;2022-12-18T05:18:25;27.48;;;7.25;;
40939;SDS011;26666;50.156;7.700;2022-12-18T05:23:27;28.70;;;7.63;;
40939;SDS011;26666;50.156;7.700;2022-12-18T05:28:29;26.83;;;5.95;;
40939;SDS011;26666;50.156;7.700;2022-12-18T05:33:33;21.02;;;6.05;;
40939;SDS011;26666;50.156;7.700;2022-12-18T05:38:36;26.98;;;6.70;;
40939;SDS011;26666;50.156;7.700;2022-12-18T05:43:39;22.30;;;5.15;;
40939;SDS011;26666;50.156;7.700;2022-12-18T05:48:42;15.00;;;5.20;;
40939;SDS011;26666;50.156;7.700;2022-12-18T05:53:44;17.27;;;5.72;;
40939;SDS011;26666;50.156;7.700;2022-12-18T05:58:46;37.10;;;7.75;;
40939;SDS011;26666;50.156;7.700;2022-12-18T06:03:48;21.58;;;6.47;;
40939;SDS011;26666;50.156;7.700;2022-12-18T06:08:52;19.60;;;5.35;;
40939;SDS011;26666;50.156;7.700;2022-12-18T06:13:54;23.38;;;5.88;;
40939;SDS011;26666;50.156;7.700;2022-12-18T06:18:59;18.60;;;5.40;;
40939;SDS011;26666;50.156;7.700;2022-12-18T06:24:03;18.40;;;5.63;;
40939;SDS011;26666;50.156;7.700;2022-12-18T06:29:04;17.75;;;5.82;;
40939;SDS011;26666;50.156;7.700;2022-12-18T06:34:06;16.63;;;4.68;;
40939;SDS011;26666;50.156;7.700;2022-12-18T06:39:07;14.27;;;4.78;;
40939;SDS011;26666;50.156;7.700;2022-12-18T06:44:09;17.95;;;7.32;;
40939;SDS011;26666;50.156;7.700;2022-12-18T06:49:11;19.65;;;5.32;;
40939;SDS011;26666;50.156;7.700;2022-12-18T06:54:13;19.77;;;5.15;;
40939;SDS011;26666;50.156;7.700;2022-12-18T06:59:15;18.83;;;4.55;;
40939;SDS011;26666;50.156;7.700;2022-12-18T07:04:16;21.67;;;5.55;;
40939;SDS011;26666;50.156;7.700;2022-12-18T07:09:18;14.18;;;3.97;;
40939;SDS011;26666;50.156;7.700;2022-12-18T07:14:20;14.63;;;4.07;;
40939;SDS011;26666;50.156;7.700;2022-12-18T07:19:21;13.68;;;4.47;;
40939;SDS011;26666;50.156;7.700;2022-12-18T07:24:23;15.30;;;5.10;;
40939;SDS011;26666;50.156;7.700;2022-12-18T07:29:24;16.30;;;4.18;;
40939;SDS011;26666;50.156;7.700;2022-12-18T07:34:26;10.98;;;4.53;;
40939;SDS011;26666;50.156;7.700;2022-12-18T07:39:27;26.35;;;7.80;;
40939;SDS011;26666;50.156;7.700;2022-12-18T07:44:29;40.75;;;11.88;;
40939;SDS011;26666;50.156;7.700;2022-12-18T07:49:33;50.92;;;14.18;;
40939;SDS011;26666;50.156;7.700;2022-12-18T07:54:34;36.22;;;10.35;;
40939;SDS011;26666;50.156;7.700;2022-12-18T07:59:36;33.17;;;7.43;;
40939;SDS011;26666;50.156;7.700;2022-12-18T08:04:38;36.67;;;10.73;;
40939;SDS011;26666;50.156;7.700;2022-12-18T08:09:39;38.42;;;14.60;;
40939;SDS011;26666;50.156;7.700;2022-12-18T08:14:41;37.50;;;11.00;;
40939;SDS011;26666;50.156;7.700;2022-12-18T08:19:42;19.90;;;6.88;;
40939;SDS011;26666;50.156;7.700;2022-12-18T08:24:44;28.88;;;8.70;;
40939;SDS011;26666;50.156;7.700;2022-12-18T08:29:46;38.83;;;8.95;;
40939;SDS011;26666;50.156;7.700;2022-12-18T08:34:47;32.08;;;10.80;;
40939;SDS011;26666;50.156;7.700;2022-12-18T08:39:49;34.72;;;9.35;;
40939;SDS011;26666;50.156;7.700;2022-12-18T08:44:50;31.48;;;9.40;;
40939;SDS011;26666;50.156;7.700;2022-12-18T08:49:52;30.27;;;9.32;;
40939;SDS011;26666;50.156;7.700;2022-12-18T08:54:53;24.17;;;6.93;;
40939;SDS011;26666;50.156;7.700;2022-12-18T08:59:54;21.52;;;7.72;;
40939;SDS011;26666;50.156;7.700;2022-12-18T09:04:56;35.63;;;8.52;;
40939;SDS011;26666;50.156;7.700;2022-12-18T09:09:58;31.15;;;9.20;;
40939;SDS011;26666;50.156;7.700;2022-12-18T09:14:59;26.80;;;7.53;;
40939;SDS011;26666;50.156;7.700;2022-12-18T09:20:01;19.35;;;7.15;;
40939;SDS011;26666;50.156;7.700;2022-12-18T09:25:02;24.60;;;7.00;;
40939;SDS011;26666;50.156;7.700;2022-12-18T09:30:04;28.98;;;8.75;;
40939;SDS011;26666;50.156;7.700;2022-12-18T09:35:07;28.88;;;9.65;;
40939;SDS011;26666;50.156;7.700;2022-12-18T09:40:18;39.92;;;12.32;;
40939;SDS011;26666;50.156;7.700;2022-12-18T09:45:22;26.40;;;9.45;;
40939;SDS011;26666;50.156;7.700;2022-12-18T09:50:27;24.80;;;8.13;;
40939;SDS011;26666;50.156;7.700;2022-12-18T09:55:40;27.02;;;8.00;;
40939;SDS011;26666;50.156;7.700;2022-12-18T10:00:51;26.73;;;7.50;;
40939;SDS011;26666;50.156;7.700;2022-12-18T10:16:53;33.25;;;8.50;;
40939;SDS011;26666;50.156;7.700;2022-12-18T10:22:39;24.25;;;9.90;;
40939;SDS011;26666;50.156;7.700;2022-12-18T10:27:42;19.80;;;6.25;;
40939;SDS011;26666;50.156;7.700;2022-12-18T10:32:43;33.45;;;9.02;;
40939;SDS011;26666;50.156;7.700;2022-12-18T10:43:14;22.30;;;8.73;;
40939;SDS011;26666;50.156;7.700;2022-12-18T10:48:17;24.38;;;8.00;;
40939;SDS011;26666;50.156;7.700;2022-12-18T10:53:24;24.33;;;8.43;;
40939;SDS011;26666;50.156;7.700;2022-12-18T10:58:35;19.73;;;6.78;;
40939;SDS011;26666;50.156;7.700;2022-12-18T11:03:45;25.77;;;7.72;;
40939;SDS011;26666;50.156;7.700;2022-12-18T11:09:08;14.65;;;6.15;;
40939;SDS011;26666;50.156;7.700;2022-12-18T11:14:22;30.70;;;7.70;;
40939;SDS011;26666;50.156;7.700;2022-12-18T11:19:35;21.77;;;7.75;;
40939;SDS011;26666;50.156;7.700;2022-12-18T11:24:38;24.30;;;8.73;;
40939;SDS011;26666;50.156;7.700;2022-12-18T11:29:41;28.02;;;8.30;;
40939;SDS011;26666;50.156;7.700;2022-12-18T11:34:48;28.98;;;8.98;;
40939;SDS011;26666;50.156;7.700;2022-12-18T11:40:00;22.40;;;6.95;;
40939;SDS011;26666;50.156;7.700;2022-12-18T11:50:25;29.17;;;10.13;;
40939;SDS011;26666;50.156;7.700;2022-12-18T11:55:36;27.20;;;10.00;;
40939;SDS011;26666;50.156;7.700;2022-12-18T12:06:17;35.00;;;10.50;;
40939;SDS011;26666;50.156;7.700;2022-12-18T12:11:28;24.02;;;8.88;;
40939;SDS011;26666;50.156;7.700;2022-12-18T12:22:20;24.23;;;9.48;;
40939;SDS011;26666;50.156;7.700;2022-12-18T12:27:36;19.98;;;8.27;;
40939;SDS011;26666;50.156;7.700;2022-12-18T12:38:27;36.60;;;11.80;;
40939;SDS011;26666;50.156;7.700;2022-12-18T12:43:52;27.58;;;8.10;;
40939;SDS011;26666;50.156;7.700;2022-12-18T12:48:59;30.20;;;9.13;;
40939;SDS011;26666;50.156;7.700;2022-12-18T12:54:05;39.22;;;10.90;;
40939;SDS011;26666;50.156;7.700;2022-12-18T12:59:30;33.58;;;11.85;;
40939;SDS011;26666;50.156;7.700;2022-12-18T13:04:49;35.22;;;11.70;;
40939;SDS011;26666;50.156;7.700;2022-12-18T13:20:32;31.88;;;8.77;;
40939;SDS011;26666;50.156;7.700;2022-12-18T13:25:36;43.97;;;11.38;;
40939;SDS011;26666;50.156;7.700;2022-12-18T13:36:03;33.75;;;10.57;;
40939;SDS011;26666;50.156;7.700;2022-12-18T13:46:29;31.73;;;10.90;;
40939;SDS011;26666;50.156;7.700;2022-12-18T13:51:44;31.33;;;11.13;;
40939;SDS011;26666;50.156;7.700;2022-12-18T13:56:49;34.90;;;10.02;;
40939;SDS011;26666;50.156;7.700;2022-12-18T14:01:52;29.30;;;11.75;;
40939;SDS011;26666;50.156;7.700;2022-12-18T14:07:02;27.77;;;10.18;;
40939;SDS011;26666;50.156;7.700;2022-12-18T14:12:11;35.45;;;9.93;;
40939;SDS011;26666;50.156;7.700;2022-12-18T14:17:18;34.55;;;10.80;;
40939;SDS011;26666;50.156;7.700;2022-12-18T14:22:25;39.92;;;11.73;;
40939;SDS011;26666;50.156;7.700;2022-12-18T14:32:29;31.88;;;10.05;;
40939;SDS011;26666;50.156;7.700;2022-12-18T14:37:31;28.10;;;9.85;;
40939;SDS011;26666;50.156;7.700;2022-12-18T14:42:32;33.85;;;9.90;;
40939;SDS011;26666;50.156;7.700;2022-12-18T14:47:34;34.42;;;11.52;;
40939;SDS011;26666;50.156;7.700;2022-12-18T14:52:35;37.38;;;13.07;;
40939;SDS011;26666;50.156;7.700;2022-12-18T14:57:37;35.47;;;11.18;;
40939;SDS011;26666;50.156;7.700;2022-12-18T15:02:39;37.95;;;10.43;;
40939;SDS011;26666;50.156;7.700;2022-12-18T15:07:45;26.45;;;10.00;;
40939;SDS011;26666;50.156;7.700;2022-12-18T15:17:59;35.35;;;10.35;;
40939;SDS011;26666;50.156;7.700;2022-12-18T15:23:02;37.38;;;11.63;;
40939;SDS011;26666;50.156;7.700;2022-12-18T15:28:03;31.08;;;10.43;;
40939;SDS011;26666;50.156;7.700;2022-12-18T15:33:22;31.98;;;10.90;;
40939;SDS011;26666;50.156;7.700;2022-12-18T15:38:25;31.10;;;11.18;;
40939;SDS011;26666;50.156;7.700;2022-12-18T15:43:27;34.92;;;11.02;;
40939;SDS011;26666;50.156;7.700;2022-12-18T15:48:30;34.10;;;11.38;;
40939;SDS011;26666;50.156;7.700;2022-12-18T15:53:34;38.40;;;12.93;;
40939;SDS011;26666;50.156;7.700;2022-12-18T15:58:35;49.33;;;12.93;;
40939;SDS011;26666;50.156;7.700;2022-12-18T16:03:37;32.17;;;12.18;;
40939;SDS011;26666;50.156;7.700;2022-12-18T16:08:39;42.88;;;13.00;;
40939;SDS011;26666;50.156;7.700;2022-12-18T16:13:41;34.53;;;10.60;;
40939;SDS011;26666;50.156;7.700;2022-12-18T16:18:43;39.42;;;12.10;;
40939;SDS011;26666;50.156;7.700;2022-12-18T16:23:45;30.80;;;11.57;;
40939;SDS011;26666;50.156;7.700;2022-12-18T16:28:46;36.38;;;10.70;;
40939;SDS011;26666;50.156;7.700;2022-12-18T16:33:48;36.60;;;11.68;;
40939;SDS011;26666;50.156;7.700;2022-12-18T16:38:50;42.28;;;11.40;;
40939;SDS011;26666;50.156;7.700;2022-12-18T16:43:51;39.15;;;12.20;;
40939;SDS011;26666;50.156;7.700;2022-12-18T16:48:56;42.00;;;12.15;;
40939;SDS011;26666;50.156;7.700;2022-12-18T16:53:59;31.05;;;10.07;;
40939;SDS011;26666;50.156;7.700;2022-12-18T16:59:04;36.50;;;12.67;;
40939;SDS011;26666;50.156;7.700;2022-12-18T17:04:06;45.50;;;12.40;;
40939;SDS011;26666;50.156;7.700;2022-12-18T17:09:12;39.55;;;10.75;;
40939;SDS011;26666;50.156;7.700;2022-12-18T17:14:16;37.30;;;12.52;;
40939;SDS011;26666;50.156;7.700;2022-12-18T17:19:19;32.20;;;11.18;;
40939;SDS011;26666;50.156;7.700;2022-12-18T17:24:22;35.85;;;9.65;;
40939;SDS011;26666;50.156;7.700;2022-12-18T17:29:23;42.38;;;10.25;;
40939;SDS011;26666;50.156;7.700;2022-12-18T17:34:25;30.77;;;9.73;;
40939;SDS011;26666;50.156;7.700;2022-12-18T17:39:26;31.23;;;10.35;;
40939;SDS011;26666;50.156;7.700;2022-12-18T17:44:28;31.10;;;10.55;;
40939;SDS011;26666;50.156;7.700;2022-12-18T17:49:30;36.03;;;10.38;;
40939;SDS011;26666;50.156;7.700;2022-12-18T17:54:31;41.42;;;11.43;;
40939;SDS011;26666;50.156;7.700;2022-12-18T17:59:33;34.83;;;11.18;;
40939;SDS011;26666;50.156;7.700;2022-12-18T18:04:34;37.80;;;10.52;;
40939;SDS011;26666;50.156;7.700;2022-12-18T18:09:36;37.60;;;11.13;;
40939;SDS011;26666;50.156;7.700;2022-12-18T18:14:37;29.02;;;9.85;;
40939;SDS011;26666;50.156;7.700;2022-12-18T18:19:39;25.10;;;8.05;;
40939;SDS011;26666;50.156;7.700;2022-12-18T18:24:42;31.55;;;10.95;;
40939;SDS011;26666;50.156;7.700;2022-12-18T18:29:44;35.95;;;9.93;;
40939;SDS011;26666;50.156;7.700;2022-12-18T18:34:46;37.40;;;9.07;;
40939;SDS011;26666;50.156;7.700;2022-12-18T18:39:50;45.53;;;10.32;;
40939;SDS011;26666;50.156;7.700;2022-12-18T18:44:53;35.38;;;10.07;;
40939;SDS011;26666;50.156;7.700;2022-12-18T18:49:55;33.80;;;9.00;;
40939;SDS011;26666;50.156;7.700;2022-12-18T18:54:57;30.90;;;9.82;;
40939;SDS011;26666;50.156;7.700;2022-12-18T19:00:14;34.78;;;9.27;;
40939;SDS011;26666;50.156;7.700;2022-12-18T19:05:16;31.98;;;9.20;;
40939;SDS011;26666;50.156;7.700;2022-12-18T19:10:17;31.27;;;9.68;;
40939;SDS011;26666;50.156;7.700;2022-12-18T19:15:19;37.67;;;12.30;;
40939;SDS011;26666;50.156;7.700;2022-12-18T19:20:21;36.88;;;9.48;;
40939;SDS011;26666;50.156;7.700;2022-12-18T19:25:24;31.90;;;10.35;;
40939;SDS011;26666;50.156;7.700;2022-12-18T19:30:40;41.35;;;10.40;;
40939;SDS011;26666;50.156;7.700;2022-12-18T19:35:41;36.00;;;11.80;;
40939;SDS011;26666;50.156;7.700;2022-12-18T19:40:43;36.65;;;10.23;;
40939;SDS011;26666;50.156;7.700;2022-12-18T19:45:45;27.90;;;8.95;;
40939;SDS011;26666;50.156;7.700;2022-12-18T19:50:47;33.50;;;10.43;;
40939;SDS011;26666;50.156;7.700;2022-12-18T19:55:48;26.45;;;9.30;;
40939;SDS011;26666;50.156;7.700;2022-12-18T20:00:50;39.60;;;11.23;;
40939;SDS011;26666;50.156;7.700;2022-12-18T20:05:51;37.60;;;10.77;;
40939;SDS011;26666;50.156;7.700;2022-12-18T20:10:53;41.00;;;10.07;;
40939;SDS011;26666;50.156;7.700;2022-12-18T20:15:54;32.17;;;10.18;;
40939;SDS011;26666;50.156;7.700;2022-12-18T20:20:56;37.88;;;10.95;;
40939;SDS011;26666;50.156;7.700;2022-12-18T20:26:00;29.63;;;10.60;;
40939;SDS011;26666;50.156;7.700;2022-12-18T20:31:03;41.78;;;11.02;;
40939;SDS011;26666;50.156;7.700;2022-12-18T20:36:07;34.38;;;10.25;;
40939;SDS011;26666;50.156;7.700;2022-12-18T20:41:16;25.67;;;9.13;;
40939;SDS011;26666;50.156;7.700;2022-12-18T20:46:22;37.42;;;11.13;;
40939;SDS011;26666;50.156;7.700;2022-12-18T20:51:24;29.98;;;9.93;;
40939;SDS011;26666;50.156;7.700;2022-12-18T20:56:26;37.40;;;10.88;;
40939;SDS011;26666;50.156;7.700;2022-12-18T21:01:28;29.13;;;10.32;;
40939;SDS011;26666;50.156;7.700;2022-12-18T21:06:31;35.90;;;10.65;;
40939;SDS011;26666;50.156;7.700;2022-12-18T21:11:32;28.02;;;9.10;;
40939;SDS011;26666;50.156;7.700;2022-12-18T21:16:34;42.88;;;11.82;;
40939;SDS011;26666;50.156;7.700;2022-12-18T21:21:35;34.55;;;9.85;;
40939;SDS011;26666;50.156;7.700;2022-12-18T21:26:39;35.67;;;11.00;;
40939;SDS011;26666;50.156;7.700;2022-12-18T21:31:46;33.30;;;10.63;;
40939;SDS011;26666;50.156;7.700;2022-12-18T21:36:48;29.42;;;10.13;;
40939;SDS011;26666;50.156;7.700;2022-12-18T21:41:50;35.75;;;13.15;;
40939;SDS011;26666;50.156;7.700;2022-12-18T21:46:55;32.53;;;10.50;;
40939;SDS011;26666;50.156;7.700;2022-12-18T21:52:06;28.55;;;9.57;;
40939;SDS011;26666;50.156;7.700;2022-12-18T21:57:09;40.80;;;11.27;;
40939;SDS011;26666;50.156;7.700;2022-12-18T22:02:15;33.45;;;10.95;;
40939;SDS011;26666;50.156;7.700;2022-12-18T22:07:18;32.50;;;10.95;;
40939;SDS011;26666;50.156;7.700;2022-12-18T22:12:20;44.95;;;11.68;;
40939;SDS011;26666;50.156;7.700;2022-12-18T22:17:21;31.20;;;9.95;;
40939;SDS011;26666;50.156;7.700;2022-12-18T22:22:24;30.00;;;9.48;;
40939;SDS011;26666;50.156;7.700;2022-12-18T22:27:25;29.50;;;9.63;;
40939;SDS011;26666;50.156;7.700;2022-12-18T22:32:27;36.95;;;11.50;;
40939;SDS011;26666;50.156;7.700;2022-12-18T22:37:31;37.30;;;11.38;;
40939;SDS011;26666;50.156;7.700;2022-12-18T22:42:33;34.35;;;10.43;;
40939;SDS011;26666;50.156;7.700;2022-12-18T22:47:35;34.83;;;10.32;;
40939;SDS011;26666;50.156;7.700;2022-12-18T22:52:36;34.20;;;10.25;;
40939;SDS011;26666;50.156;7.700;2022-12-18T22:57:38;30.13;;;10.32;;
40939;SDS011;26666;50.156;7.700;2022-12-18T23:02:42;33.38;;;11.07;;
40939;SDS011;26666;50.156;7.700;2022-12-18T23:07:44;31.00;;;10.70;;
40939;SDS011;26666;50.156;7.700;2022-12-18T23:12:45;35.05;;;10.73;;
40939;SDS011;26666;50.156;7.700;2022-12-18T23:17:47;32.85;;;11.85;;
40939;SDS011;26666;50.156;7.700;2022-12-18T23:22:49;38.35;;;11.35;;
40939;SDS011;26666;50.156;7.700;2022-12-18T23:27:50;30.00;;;10.65;;
40939;SDS011;26666;50.156;7.700;2022-12-18T23:32:52;30.13;;;10.15;;
40939;SDS011;26666;50.156;7.700;2022-12-18T23:37:55;35.67;;;11.32;;
40939;SDS011;26666;50.156;7.700;2022-12-18T23:43:00;43.70;;;12.23;;
40939;SDS011;26666;50.156;7.700;2022-12-18T23:48:01;33.17;;;11.15;;
40939;SDS011;26666;50.156;7.700;2022-12-18T23:53:03;34.22;;;12.20;;
40939;SDS011;26666;50.156;7.700;2022-12-18T23:58:06;34.40;;;10.90;;
